Time;durP1;ratioP1;P1;durP2;ratioP2;P2;SDS_P1;SDS_P2;PMS_P1;PMS_P2;Temp;Humidity;BMP_temperature;BMP_pressure;BME280_temperature;BME280_humidity;BME280_pressure;Samples;Min_cycle;Max_cycle;Signal;HPM_P1;HPM_P2
2023/04/07 00:00:58;;;;;;;43.08;17.83;;;;;;;8.06;100.00;101398.75;4998181;28;20046;-63
2023/04/07 00:03:24;;;;;;;40.63;16.85;;;;;;;8.04;100.00;101393.50;4997045;28;20121;-63
2023/04/07 00:05:50;;;;;;;44.60;17.50;;;;;;;8.03;100.00;101391.72;4998284;28;20025;-63
2023/04/07 00:08:15;;;;;;;37.55;17.20;;;;;;;8.01;100.00;101402.03;4997844;28;20038;-64
2023/04/07 00:10:40;;;;;;;41.10;17.92;;;;;;;8.01;100.00;101398.56;4996227;28;20045;-63
2023/04/07 00:13:06;;;;;;;36.88;17.13;;;;;;;7.98;100.00;101399.31;4995842;28;20030;-64
2023/04/07 00:15:31;;;;;;;38.72;16.90;;;;;;;7.98;100.00;101401.00;4997643;28;20033;-63
2023/04/07 00:17:56;;;;;;;41.05;17.48;;;;;;;7.97;100.00;101401.84;4998141;28;20101;-63
2023/04/07 00:20:22;;;;;;;40.95;17.25;;;;;;;7.96;100.00;101402.66;4996959;28;20022;-63
2023/04/07 00:22:47;;;;;;;39.95;16.95;;;;;;;7.92;100.00;101403.31;4997527;28;20030;-64
2023/04/07 00:25:13;;;;;;;36.78;17.20;;;;;;;7.90;100.00;101402.38;4995729;28;20390;-63
2023/04/07 00:27:38;;;;;;;35.97;17.13;;;;;;;7.89;100.00;101405.78;4997849;28;20108;-63
2023/04/07 00:30:04;;;;;;;31.83;15.50;;;;;;;7.86;100.00;101401.34;4997541;28;20477;-64
2023/04/07 00:32:29;;;;;;;33.25;15.77;;;;;;;7.85;100.00;101409.97;4997656;28;20409;-63
2023/04/07 00:34:55;;;;;;;31.45;15.63;;;;;;;7.84;100.00;101413.38;4996979;28;20091;-63
2023/04/07 00:37:20;;;;;;;35.00;16.08;;;;;;;7.83;100.00;101409.91;4998063;28;20073;-63
2023/04/07 00:39:45;;;;;;;31.55;15.88;;;;;;;7.84;100.00;101411.66;4996185;28;20026;-63
2023/04/07 00:42:11;;;;;;;33.88;16.20;;;;;;;7.86;100.00;101408.25;4997187;28;20029;-63
2023/04/07 00:44:36;;;;;;;34.35;16.40;;;;;;;7.87;100.00;101404.84;4996817;28;20036;-63
2023/04/07 00:47:02;;;;;;;30.88;15.88;;;;;;;7.85;100.00;101402.19;4997165;28;20037;-64
2023/04/07 00:49:27;;;;;;;36.67;17.58;;;;;;;7.84;100.00;101398.69;4996800;28;20026;-63
2023/04/07 00:51:57;;;;;;;35.38;17.15;;;;;;;7.87;100.00;101399.66;4997575;28;20113;-63
2023/04/07 00:54:23;;;;;;;32.42;17.45;;;;;;;7.86;100.00;101395.28;4994783;28;20521;-63
2023/04/07 00:56:49;;;;;;;33.35;17.92;;;;;;;7.86;100.00;101405.66;4997666;28;20500;-63
2023/04/07 00:59:15;;;;;;;34.08;17.10;;;;;;;7.86;100.00;101403.06;4997471;28;20093;-63
2023/04/07 01:01:49;;;;;;;38.08;18.67;;;;;;;7.84;100.00;101401.28;4997578;28;20026;-64
2023/04/07 01:04:28;;;;;;;33.13;16.10;;;;;;;7.82;100.00;101402.94;4996609;28;20026;-63
2023/04/07 01:06:58;;;;;;;32.70;15.57;;;;;;;7.81;100.00;101395.09;4997522;28;20052;-64
2023/04/07 01:09:29;;;;;;;33.17;15.13;;;;;;;7.78;100.00;101403.63;4995737;28;20033;-64
2023/04/07 01:11:55;;;;;;;30.85;15.50;;;;;;;7.78;100.00;101400.16;4995919;28;20029;-63
2023/04/07 01:14:22;;;;;;;35.65;17.13;;;;;;;7.75;100.00;101400.91;4996879;28;20029;-63
2023/04/07 01:16:56;;;;;;;28.95;13.60;;;;;;;7.72;100.00;101403.34;4997016;28;20452;-63
2023/04/07 01:19:27;;;;;;;28.98;13.02;;;;;;;7.69;100.00;101408.41;4996993;28;20022;-63
2023/04/07 01:21:57;;;;;;;30.67;13.65;;;;;;;7.66;100.00;101406.56;4978263;28;20034;-64
2023/04/07 01:24:41;;;;;;;30.73;14.20;;;;;;;7.66;100.00;101413.44;4994108;28;20032;-63
2023/04/07 01:27:35;;;;;;;35.30;16.85;;;;;;;7.66;100.00;101416.03;4997640;28;20202;-63
2023/04/07 01:30:02;;;;;;;33.75;14.13;;;;;;;7.64;100.00;101415.09;4996823;28;20285;-63
2023/04/07 01:32:29;;;;;;;28.77;13.38;;;;;;;7.61;100.00;101412.38;4995021;28;20030;-63
2023/04/07 01:34:56;;;;;;;28.92;13.98;;;;;;;7.59;100.00;101417.47;4996752;28;20064;-64
2023/04/07 01:37:25;;;;;;;28.95;13.90;;;;;;;7.56;100.00;101412.16;4996745;28;20030;-64
2023/04/07 01:39:51;;;;;;;28.98;13.75;;;;;;;7.55;100.00;101410.38;4995669;28;20041;-63
2023/04/07 01:42:18;;;;;;;20.92;11.40;;;;;;;7.52;100.00;101417.13;4996050;28;20840;-63
2023/04/07 01:44:45;;;;;;;24.25;12.20;;;;;;;7.51;100.00;101415.38;4996866;28;20034;-64
2023/04/07 01:47:11;;;;;;;21.90;10.73;;;;;;;7.52;100.00;101422.31;4996534;28;20573;-63
2023/04/07 01:49:37;;;;;;;23.58;10.90;;;;;;;7.51;100.00;101421.44;4996529;28;20042;-63
2023/04/07 01:52:04;;;;;;;22.75;11.70;;;;;;;7.48;100.00;101424.75;4995512;28;20034;-63
2023/04/07 01:54:30;;;;;;;23.98;11.30;;;;;;;7.51;100.00;101426.63;4994829;28;20038;-63
2023/04/07 01:56:56;;;;;;;25.00;12.00;;;;;;;7.53;100.00;101431.88;4996825;28;20055;-64
2023/04/07 01:59:21;;;;;;;25.20;11.50;;;;;;;7.55;100.00;101433.72;4996217;28;20078;-63
2023/04/07 02:01:47;;;;;;;25.90;13.40;;;;;;;7.56;100.00;101437.19;4996476;28;20452;-63
2023/04/07 02:04:27;;;;;;;29.77;13.25;;;;;;;7.58;100.00;101440.75;4994204;28;20026;-64
2023/04/07 02:07:00;;;;;;;25.67;11.77;;;;;;;7.56;100.00;101450.16;4995461;28;21012;-63
2023/04/07 02:09:30;;;;;;;27.35;12.43;;;;;;;7.55;100.00;101449.28;4994390;28;20040;-63
2023/04/07 02:11:58;;;;;;;27.92;13.00;;;;;;;7.56;100.00;101444.97;4996138;28;20442;-63
2023/04/07 02:14:24;;;;;;;29.02;13.27;;;;;;;7.55;100.00;101448.41;4975334;28;20030;-63
2023/04/07 02:16:51;;;;;;;26.48;13.48;;;;;;;7.56;100.00;101444.97;4995283;28;20085;-63
2023/04/07 02:19:17;;;;;;;27.23;12.93;;;;;;;7.55;100.00;101438.91;4995839;28;20026;-63
2023/04/07 02:21:44;;;;;;;25.70;12.27;;;;;;;7.54;100.00;101439.72;4996349;28;20548;-63
2023/04/07 02:24:11;;;;;;;26.10;12.02;;;;;;;7.55;100.00;101435.44;4994656;28;20153;-63
2023/04/07 02:26:36;;;;;;;25.40;12.40;;;;;;;7.52;100.00;101433.59;4995554;28;20061;-64
2023/04/07 02:29:03;;;;;;;24.65;12.35;;;;;;;7.50;100.00;101440.38;4995963;28;20409;-63
2023/04/07 02:31:29;;;;;;;27.45;12.35;;;;;;;7.49;100.00;101433.44;4996548;28;20030;-63
2023/04/07 02:33:54;;;;;;;24.20;12.02;;;;;;;7.50;100.00;101440.38;4993733;28;20529;-63
2023/04/07 02:36:20;;;;;;;25.88;11.18;;;;;;;7.51;100.00;101436.09;4995538;28;20536;-63
2023/04/07 02:38:45;;;;;;;26.30;12.18;;;;;;;7.51;100.00;101430.91;4995933;28;20494;-63
2023/04/07 02:41:10;;;;;;;24.67;11.32;;;;;;;7.53;100.00;101431.88;4994497;28;20034;-63
2023/04/07 02:43:35;;;;;;;25.98;11.77;;;;;;;7.52;100.00;101435.28;4994597;28;20514;-63
2023/04/07 02:46:01;;;;;;;24.38;10.88;;;;;;;7.51;100.00;101439.56;4996023;28;20080;-63
2023/04/07 02:48:26;;;;;;;26.60;10.63;;;;;;;7.53;100.00;101442.25;4995234;28;20052;-63
2023/04/07 02:50:51;;;;;;;25.83;10.02;;;;;;;7.52;100.00;101435.28;4994059;28;20145;-63
2023/04/07 02:53:16;;;;;;;20.90;9.32;;;;;;;7.50;100.00;101442.97;4994308;28;20030;-63
2023/04/07 02:55:42;;;;;;;16.33;7.75;;;;;;;7.49;100.00;101444.69;4996029;28;20393;-63
2023/04/07 02:58:07;;;;;;;16.80;7.30;;;;;;;7.48;100.00;101437.72;4995962;28;20076;-64
2023/04/07 03:00:33;;;;;;;16.63;7.30;;;;;;;7.49;100.00;101446.41;4994856;28;20069;-63
2023/04/07 03:02:58;;;;;;;16.30;6.78;;;;;;;7.49;100.00;101436.91;4993688;28;20084;-63
2023/04/07 03:05:23;;;;;;;17.13;7.03;;;;;;;7.47;100.00;101438.56;4995237;28;20030;-63
2023/04/07 03:07:49;;;;;;;16.80;7.68;;;;;;;7.47;100.00;101438.56;4995603;28;20022;-63
2023/04/07 03:10:14;;;;;;;17.55;6.43;;;;;;;7.47;100.00;101430.78;4995552;28;20457;-63
2023/04/07 03:12:40;;;;;;;15.95;6.05;;;;;;;7.45;100.00;101437.59;4995743;28;20041;-63
2023/04/07 03:15:06;;;;;;;13.43;6.50;;;;;;;7.44;100.00;101440.13;4993967;28;20113;-63
2023/04/07 03:17:32;;;;;;;15.93;6.45;;;;;;;7.46;100.00;101444.56;4995103;28;20041;-63
2023/04/07 03:19:57;;;;;;;14.63;6.28;;;;;;;7.47;100.00;101438.56;4995409;28;20032;-63
2023/04/07 03:22:22;;;;;;;16.60;6.00;;;;;;;7.45;100.00;101437.59;4996094;28;20026;-63
2023/04/07 03:24:48;;;;;;;19.17;6.03;;;;;;;7.46;100.00;101436.78;4994633;28;20037;-63
2023/04/07 03:27:13;;;;;;;14.00;5.88;;;;;;;7.44;100.00;101440.13;4995989;28;20026;-63
2023/04/07 03:29:39;;;;;;;13.18;6.55;;;;;;;7.44;100.00;101435.84;4994024;28;20114;-63
2023/04/07 03:32:04;;;;;;;15.25;7.20;;;;;;;7.45;100.00;101436.72;4998276;28;20026;-63
2023/04/07 03:34:29;;;;;;;20.48;7.93;;;;;;;7.46;100.00;101446.28;4998238;28;20405;-63
2023/04/07 03:36:55;;;;;;;21.98;8.75;;;;;;;7.44;100.00;101442.72;4998559;28;20071;-63
2023/04/07 03:39:20;;;;;;;23.48;9.65;;;;;;;7.42;100.00;101444.34;4999012;28;20516;-63
2023/04/07 03:41:45;;;;;;;26.38;10.48;;;;;;;7.40;100.00;101440.78;4999270;28;20030;-63
2023/04/07 03:44:11;;;;;;;29.17;11.32;;;;;;;7.39;100.00;101441.63;4996741;28;20087;-63
2023/04/07 03:46:36;;;;;;;23.42;10.95;;;;;;;7.38;100.00;101445.91;4998438;28;20105;-63
2023/04/07 03:49:01;;;;;;;30.67;11.75;;;;;;;7.36;100.00;101442.38;4998705;28;20037;-63
2023/04/07 03:51:27;;;;;;;24.27;10.63;;;;;;;7.35;100.00;101448.34;4998661;28;20048;-63
2023/04/07 03:53:52;;;;;;;26.67;11.63;;;;;;;7.36;100.00;101447.56;4997669;28;20401;-63
2023/04/07 03:56:18;;;;;;;27.15;11.10;;;;;;;7.37;100.00;101451.03;4997554;28;20034;-63
2023/04/07 03:58:45;;;;;;;25.50;11.10;;;;;;;7.35;100.00;101456.13;4997162;28;20025;-63
2023/04/07 04:01:10;;;;;;;27.73;10.98;;;;;;;7.34;100.00;101454.34;4998379;28;20061;-64
2023/04/07 04:03:35;;;;;;;30.70;11.27;;;;;;;7.32;100.00;101453.41;4997904;28;20044;-63
2023/04/07 04:06:01;;;;;;;27.40;10.75;;;;;;;7.30;100.00;101453.34;4996449;28;20064;-63
2023/04/07 04:08:26;;;;;;;26.88;10.65;;;;;;;7.28;100.00;101454.06;4997489;28;20030;-63
2023/04/07 04:10:51;;;;;;;26.23;10.52;;;;;;;7.26;100.00;101450.53;4997786;28;20065;-63
2023/04/07 04:13:17;;;;;;;26.85;10.70;;;;;;;7.23;100.00;101446.09;4997392;28;20034;-63
2023/04/07 04:15:42;;;;;;;28.98;10.75;;;;;;;7.22;100.00;101451.19;4997619;28;20115;-63
2023/04/07 04:18:08;;;;;;;23.58;10.30;;;;;;;7.22;100.00;101449.47;4998582;28;20481;-63
2023/04/07 04:20:33;;;;;;;23.95;10.88;;;;;;;7.23;100.00;101453.00;4997977;28;20060;-63
2023/04/07 04:22:58;;;;;;;28.00;11.18;;;;;;;7.23;100.00;101447.81;4996275;28;20100;-63
2023/04/07 04:25:23;;;;;;;24.65;9.65;;;;;;;7.23;100.00;101447.81;4994922;28;20528;-63
2023/04/07 04:27:49;;;;;;;27.08;10.70;;;;;;;7.23;100.00;101450.41;4997796;28;20033;-63
2023/04/07 04:30:14;;;;;;;25.85;10.07;;;;;;;7.20;100.00;101453.72;4996458;28;20378;-63
2023/04/07 04:32:40;;;;;;;26.10;9.85;;;;;;;7.19;100.00;101457.13;4998257;28;20060;-63
2023/04/07 04:35:05;;;;;;;22.77;9.48;;;;;;;7.18;100.00;101451.88;4978871;28;20401;-63
2023/04/07 04:37:31;;;;;;;24.65;9.57;;;;;;;7.17;100.00;101450.09;4997992;28;20033;-63
2023/04/07 04:39:56;;;;;;;26.65;9.50;;;;;;;7.18;100.00;101457.94;4978516;28;20041;-64
2023/04/07 04:42:21;;;;;;;26.27;9.18;;;;;;;7.17;100.00;101458.78;4995871;28;20026;-63
2023/04/07 04:44:47;;;;;;;23.98;8.98;;;;;;;7.14;100.00;101462.09;4997753;28;20021;-63
2023/04/07 04:47:12;;;;;;;25.00;8.90;;;;;;;7.11;100.00;101459.34;4997596;28;20025;-63
2023/04/07 04:49:37;;;;;;;24.58;9.60;;;;;;;7.06;100.00;101463.41;4996506;28;20041;-63
2023/04/07 04:52:03;;;;;;;24.60;8.93;;;;;;;7.01;100.00;101464.91;4997812;28;20032;-63
2023/04/07 04:54:28;;;;;;;23.83;9.68;;;;;;;6.94;100.00;101468.91;4996895;28;20030;-63
2023/04/07 04:56:55;;;;;;;21.80;8.80;;;;;;;6.89;100.00;101475.56;4997597;28;21076;-63
2023/04/07 04:59:21;;;;;;;24.23;9.23;;;;;;;6.84;100.00;101477.06;4996537;28;20058;-63
2023/04/07 05:01:46;;;;;;;23.13;9.25;;;;;;;6.82;100.00;101477.78;4996544;28;20160;-63
2023/04/07 05:04:11;;;;;;;25.70;8.70;;;;;;;6.79;100.00;101484.59;4995259;28;20949;-63
2023/04/07 05:06:37;;;;;;;23.65;8.88;;;;;;;6.78;100.00;101489.72;4997721;28;20034;-63
2023/04/07 05:09:02;;;;;;;24.77;9.23;;;;;;;6.79;100.00;101489.78;4996455;28;20512;-63
2023/04/07 05:11:27;;;;;;;29.73;9.63;;;;;;;6.83;100.00;101493.41;4996131;28;20026;-63
2023/04/07 05:13:53;;;;;;;26.38;10.05;;;;;;;6.84;100.00;101483.94;4996995;28;20029;-63
2023/04/07 05:16:18;;;;;;;25.60;9.50;;;;;;;6.85;100.00;101489.19;4995016;28;20026;-63
2023/04/07 05:18:43;;;;;;;31.92;10.10;;;;;;;6.86;100.00;101490.94;4994173;28;20397;-64
2023/04/07 05:21:08;;;;;;;29.33;9.70;;;;;;;6.85;100.00;101496.06;4997245;28;20046;-63
2023/04/07 05:23:35;;;;;;;27.15;9.85;;;;;;;6.84;100.00;101502.06;4997320;28;20509;-64
2023/04/07 05:26:00;;;;;;;26.80;10.10;;;;;;;6.85;100.00;101498.66;4997219;28;20624;-63
2023/04/07 05:28:25;;;;;;;26.90;9.98;;;;;;;6.86;100.00;101505.63;4995984;28;20023;-63
2023/04/07 05:30:51;;;;;;;29.95;10.90;;;;;;;6.87;100.00;101502.22;4996528;28;20104;-64
2023/04/07 05:33:16;;;;;;;31.23;11.02;;;;;;;6.88;100.00;101504.88;4995258;28;20037;-62
2023/04/07 05:35:45;;;;;;;31.48;10.45;;;;;;;6.88;100.00;101504.88;4997067;28;20270;-64
2023/04/07 05:38:10;;;;;;;28.83;10.77;;;;;;;6.92;100.00;101505.91;4995793;28;20121;-63
2023/04/07 05:40:36;;;;;;;28.63;10.50;;;;;;;6.93;100.00;101505.97;4994835;28;20433;-63
2023/04/07 05:43:01;;;;;;;31.30;11.45;;;;;;;6.94;100.00;101515.53;4996491;28;20026;-63
2023/04/07 05:45:26;;;;;;;30.23;11.35;;;;;;;6.97;100.00;101514.81;4996959;28;20045;-63
2023/04/07 05:47:51;;;;;;;28.85;10.15;;;;;;;6.99;100.00;101513.16;4996285;28;20040;-63
2023/04/07 05:50:17;;;;;;;26.83;10.95;;;;;;;7.03;100.00;101511.63;4995688;28;20458;-64
2023/04/07 05:52:42;;;;;;;28.13;11.10;;;;;;;7.04;100.00;101511.72;4994723;28;20026;-63
2023/04/07 05:55:08;;;;;;;30.58;10.77;;;;;;;7.04;100.00;101510.78;4995091;28;20037;-63
2023/04/07 05:57:33;;;;;;;30.15;12.05;;;;;;;7.04;100.00;101503.94;4996982;28;20103;-63
2023/04/07 05:59:59;;;;;;;31.50;11.38;;;;;;;7.06;100.00;101515.25;4994955;28;20046;-63
2023/04/07 06:02:24;;;;;;;28.75;11.25;;;;;;;7.08;100.00;101518.81;4978096;28;20164;-63
2023/04/07 06:04:49;;;;;;;29.27;11.52;;;;;;;7.10;100.00;101519.78;4987543;28;20030;-63
2023/04/07 06:07:15;;;;;;;29.55;11.45;;;;;;;7.13;100.00;101519.03;4996356;28;20122;-63
2023/04/07 06:09:41;;;;;;;30.52;11.77;;;;;;;7.16;100.00;101520.91;4995081;28;20627;-62
2023/04/07 06:12:08;;;;;;;33.33;11.75;;;;;;;7.17;100.00;101527.84;4994950;28;20030;-64
2023/04/07 06:14:33;;;;;;;31.55;12.02;;;;;;;7.18;100.00;101527.91;4995465;28;20108;-63
2023/04/07 06:16:58;;;;;;;29.92;11.68;;;;;;;7.20;100.00;101527.97;4994178;28;20624;-63
2023/04/07 06:19:24;;;;;;;32.90;12.27;;;;;;;7.23;100.00;101534.22;4996389;28;20033;-63
2023/04/07 06:21:49;;;;;;;32.05;11.75;;;;;;;7.26;100.00;101539.53;4996514;28;20481;-63
2023/04/07 06:24:14;;;;;;;34.83;12.18;;;;;;;7.28;100.00;101530.13;4995850;28;20018;-63
2023/04/07 06:26:40;;;;;;;29.58;11.52;;;;;;;7.30;100.00;101535.41;4976968;28;20034;-63
2023/04/07 06:29:06;;;;;;;32.25;11.88;;;;;;;7.32;100.00;101538.94;4995742;28;20076;-63
2023/04/07 06:31:31;;;;;;;28.35;12.25;;;;;;;7.33;100.00;101545.91;4994554;28;20034;-63
2023/04/07 06:33:56;;;;;;;32.65;12.60;;;;;;;7.36;100.00;101542.56;4996448;28;20073;-63
2023/04/07 06:36:22;;;;;;;33.05;12.88;;;;;;;7.38;100.00;101548.72;4996480;28;20371;-64
2023/04/07 06:38:47;;;;;;;35.00;12.38;;;;;;;7.40;100.00;101541.91;4994918;28;20453;-63
2023/04/07 06:41:15;;;;;;;35.28;13.80;;;;;;;7.41;100.00;101547.16;4995704;28;20738;-63
2023/04/07 06:43:42;;;;;;;33.30;13.27;;;;;;;7.42;100.00;101556.72;4993940;28;20038;-63
2023/04/07 06:46:07;;;;;;;34.00;13.23;;;;;;;7.45;100.00;101556.88;4993463;28;20041;-63
2023/04/07 06:48:33;;;;;;;36.88;13.55;;;;;;;7.48;100.00;101556.13;4996165;28;20018;-63
2023/04/07 06:50:58;;;;;;;32.83;12.65;;;;;;;7.49;100.00;101560.50;4994114;28;20454;-63
2023/04/07 06:53:23;;;;;;;30.10;12.90;;;;;;;7.51;100.00;101561.44;4991161;28;20091;-63
2023/04/07 06:55:49;;;;;;;39.63;13.40;;;;;;;7.55;100.00;101557.31;4995903;28;20056;-63
2023/04/07 06:58:14;;;;;;;34.65;12.90;;;;;;;7.58;100.00;101565.25;4995226;28;20041;-63
2023/04/07 07:00:39;;;;;;;34.78;13.23;;;;;;;7.60;100.00;101567.09;4995146;28;20060;-63
2023/04/07 07:03:05;;;;;;;30.63;12.35;;;;;;;7.66;100.00;101569.06;4992329;28;20050;-63
2023/04/07 07:05:30;;;;;;;28.58;12.93;;;;;;;7.69;100.00;101577.00;4995519;28;20093;-63
2023/04/07 07:07:56;;;;;;;34.80;12.82;;;;;;;7.72;100.00;101579.75;4998587;28;20511;-63
2023/04/07 07:10:21;;;;;;;26.75;11.63;;;;;;;7.74;100.00;101575.50;5000177;28;20112;-63
2023/04/07 07:12:47;;;;;;;32.95;11.40;;;;;;;7.77;100.00;101573.06;4998886;28;20041;-63
2023/04/07 07:15:13;;;;;;;32.08;11.98;;;;;;;7.80;100.00;101580.09;4998800;28;20042;-63
2023/04/07 07:17:38;;;;;;;27.90;11.63;;;;;;;7.83;100.00;101577.66;4998605;28;20030;-63
2023/04/07 07:20:04;;;;;;;22.73;10.60;;;;;;;7.88;100.00;101572.66;4979554;28;20040;-63
2023/04/07 07:22:30;;;;;;;28.00;11.10;;;;;;;7.92;100.00;101580.69;4999771;28;20026;-63
2023/04/07 07:24:55;;;;;;;27.63;10.57;;;;;;;7.99;100.00;101581.84;4997662;28;20081;-63
2023/04/07 07:27:20;;;;;;;26.73;10.68;;;;;;;8.08;100.00;101581.38;4998433;28;20396;-64
2023/04/07 07:29:45;;;;;;;31.88;12.20;;;;;;;8.15;100.00;101586.03;4999481;28;20038;-63
2023/04/07 07:32:11;;;;;;;29.88;10.90;;;;;;;8.23;100.00;101581.19;4997809;28;20426;-63
2023/04/07 07:34:36;;;;;;;29.00;11.63;;;;;;;8.33;100.00;101588.56;4996293;28;20052;-69
2023/04/07 07:37:01;;;;;;;24.45;10.40;;;;;;;8.41;100.00;101584.59;4981102;28;20056;-69
2023/04/07 07:39:28;;;;;;;26.50;10.82;;;;;;;8.45;100.00;101593.44;4993667;28;20030;-69
2023/04/07 07:41:54;;;;;;;21.92;9.32;;;;;;;8.45;100.00;101599.53;4977942;28;20521;-69
2023/04/07 07:44:27;;;;;;;22.15;8.75;;;;;;;8.40;100.00;101598.41;5311274;23;20042;31
2023/04/07 07:46:53;;;;;;;23.20;8.75;;;;;;;8.39;100.00;101601.81;4974653;23;20535;-69
2023/04/07 07:49:18;;;;;;;24.20;8.65;;;;;;;8.37;100.00;101606.03;4960388;28;20023;-69
2023/04/07 07:51:45;;;;;;;22.67;8.48;;;;;;;8.38;100.00;101606.94;4962003;28;20030;-69
2023/04/07 07:54:10;;;;;;;21.58;8.07;;;;;;;8.36;100.00;101615.56;4962089;28;20022;-69
2023/04/07 07:56:36;;;;;;;17.83;7.63;;;;;;;8.35;100.00;101611.16;4962180;28;20121;-69
2023/04/07 07:59:01;;;;;;;20.70;8.38;;;;;;;8.39;100.00;101612.22;5126637;23;20035;-68
2023/04/07 08:01:26;;;;;;;19.30;7.70;;;;;;;8.41;100.00;101605.38;4964449;28;20041;-69
2023/04/07 08:03:52;;;;;;;16.92;7.45;;;;;;;8.44;100.00;101608.13;4965227;28;20038;-69
2023/04/07 08:06:17;;;;;;;16.55;6.30;;;;;;;8.47;100.00;101613.47;4968448;28;20034;-69
2023/04/07 08:08:42;;;;;;;15.45;6.63;;;;;;;8.49;100.00;101618.75;4967664;28;20023;-68
2023/04/07 08:11:08;;;;;;;15.82;6.25;;;;;;;8.54;100.00;101625.00;4968022;28;20027;-69
2023/04/07 08:13:33;;;;;;;16.08;6.40;;;;;;;8.56;100.00;101618.19;4968020;28;20035;-69
2023/04/07 08:15:59;;;;;;;12.07;5.57;;;;;;;8.62;100.00;101626.25;4949731;28;20545;-68
2023/04/07 08:18:24;;;;;;;13.07;5.03;;;;;;;8.65;100.00;101634.19;4965210;28;20030;-68
2023/04/07 08:20:50;;;;;;;18.27;6.00;;;;;;;8.70;100.00;101627.50;4968267;28;21367;-69
2023/04/07 08:23:15;;;;;;;15.07;5.70;;;;;;;8.75;100.00;101631.97;4950716;28;20097;-69
2023/04/07 08:25:41;;;;;;;14.88;6.10;;;;;;;8.80;100.00;101627.88;4967188;28;20478;-69
2023/04/07 08:28:06;;;;;;;17.00;6.85;;;;;;;8.81;100.00;101625.34;4968955;28;20430;-69
2023/04/07 08:30:31;;;;;;;15.43;6.85;;;;;;;8.80;100.00;101631.34;4969228;28;20029;-69
2023/04/07 08:32:57;;;;;;;14.52;6.07;;;;;;;8.74;100.00;101633.69;4967665;28;20453;-69
2023/04/07 08:35:22;;;;;;;14.43;5.50;;;;;;;8.66;100.00;101638.56;4967364;28;20134;-69
2023/04/07 08:37:48;;;;;;;15.10;5.88;;;;;;;8.63;100.00;101648.81;4969380;28;20034;-69
2023/04/07 08:40:13;;;;;;;13.68;5.72;;;;;;;8.59;100.00;101646.00;4966929;28;20487;-69
2023/04/07 08:42:46;;;;;;;12.68;5.40;;;;;;;8.55;100.00;101649.31;4950581;28;20030;-69
2023/04/07 08:45:12;;;;;;;13.05;5.97;;;;;;;8.48;100.00;101642.94;4967947;28;20030;-69
2023/04/07 08:47:40;;;;;;;14.45;6.10;;;;;;;8.45;100.00;101645.41;4968026;28;20547;-68
2023/04/07 08:50:08;;;;;;;11.52;5.43;;;;;;;8.42;100.00;101653.03;4942000;28;20039;-69
2023/04/07 08:52:40;;;;;;;18.48;6.38;;;;;;;8.39;100.00;101661.56;4967679;28;20085;-69
2023/04/07 08:55:07;;;;;;;9.90;5.07;;;;;;;8.40;100.00;101657.22;4968714;28;20029;-68
2023/04/07 08:57:33;;;;;;;14.05;5.65;;;;;;;8.43;100.00;101667.75;4969017;28;20040;-68
2023/04/07 09:00:06;;;;;;;12.73;5.10;;;;;;;8.49;100.00;101663.78;4961351;28;20070;-68
2023/04/07 09:02:33;;;;;;;14.82;5.95;;;;;;;8.61;100.00;101667.75;4958597;28;20090;-68
2023/04/07 09:04:58;;;;;;;16.17;6.60;;;;;;;8.70;100.00;101660.34;4956760;28;20081;-68
2023/04/07 09:07:24;;;;;;;15.05;5.30;;;;;;;8.77;100.00;101670.19;4956617;28;20035;-68
2023/04/07 09:09:49;;;;;;;14.05;4.97;;;;;;;8.84;100.00;101669.66;4956664;28;20058;-68
2023/04/07 09:12:15;;;;;;;12.77;4.90;;;;;;;8.90;100.00;101666.44;4953411;28;20057;-68
2023/04/07 09:14:40;;;;;;;14.68;4.95;;;;;;;8.96;100.00;101665.81;4957226;28;20034;-68
2023/04/07 09:17:06;;;;;;;13.75;4.93;;;;;;;8.97;100.00;101671.06;4939976;28;20161;-70
2023/04/07 09:19:32;;;;;;;11.85;4.72;;;;;;;9.00;100.00;101672.94;5087678;23;20078;-96
2023/04/07 09:22:00;;;;;;;11.20;5.13;;;;;;;9.00;100.00;101673.81;4966427;28;20129;-96
2023/04/07 09:24:30;;;;;;;11.98;4.72;;;;;;;9.00;100.00;101672.94;4945435;28;20065;-95
2023/04/07 09:27:17;;;;;;;13.38;4.35;;;;;;;9.00;100.00;101673.81;4958870;28;20401;-95
2023/04/07 09:29:44;;;;;;;12.88;4.43;;;;;;;8.97;99.39;101671.06;4949361;28;20102;-96
2023/04/07 09:32:11;;;;;;;11.50;4.50;;;;;;;8.94;100.00;101681.34;4949477;28;20113;-96
2023/04/07 09:34:38;;;;;;;11.48;4.28;;;;;;;8.91;100.00;101677.72;4961581;28;20034;-96
2023/04/07 09:37:05;;;;;;;12.85;4.80;;;;;;;8.93;100.00;101676.09;4962812;28;20027;-96
2023/04/07 09:39:32;;;;;;;12.73;4.82;;;;;;;8.91;100.00;101678.63;4964549;28;20054;-94
2023/04/07 09:42:05;;;;;;;11.10;4.70;;;;;;;8.95;100.00;101679.63;4957567;28;20097;-96
2023/04/07 09:44:41;;;;;;;11.80;4.70;;;;;;;8.99;100.00;101677.25;4948882;28;20047;-96
2023/04/07 09:47:17;;;;;;;14.38;4.60;;;;;;;9.01;98.86;101674.72;4952263;28;20038;-95
2023/04/07 09:49:54;;;;;;;14.30;4.90;;;;;;;9.08;100.00;101673.25;4949179;28;20023;-94
2023/04/07 09:52:25;;;;;;;13.70;4.45;;;;;;;9.15;100.00;101671.00;4932429;28;20584;-95
2023/04/07 09:54:58;;;;;;;11.25;5.05;;;;;;;9.24;99.81;101670.50;4947979;28;20019;-95
2023/04/07 09:57:27;;;;;;;11.63;4.82;;;;;;;9.33;100.00;101677.81;4931516;28;20508;-95
2023/04/07 09:59:59;;;;;;;12.93;4.80;;;;;;;9.36;99.85;101676.19;4931552;28;20081;-94
2023/04/07 10:02:31;;;;;;;10.00;4.15;;;;;;;9.38;99.68;101682.38;4930875;28;20330;-94
2023/04/07 10:04:58;;;;;;;13.85;4.40;;;;;;;9.35;98.85;101687.41;4930752;28;20027;-96
2023/04/07 10:07:26;;;;;;;12.43;4.47;;;;;;;9.28;98.46;101682.78;4934344;28;20106;-95
2023/04/07 10:09:52;;;;;;;12.18;4.45;;;;;;;9.17;100.00;101690.13;4934293;28;20042;-96
2023/04/07 10:12:18;;;;;;;12.45;4.10;;;;;;;9.08;99.11;101697.56;4918482;29;20043;-94
2023/04/07 10:14:53;;;;;;;13.88;4.30;;;;;;;8.99;99.00;101692.84;4946353;28;20027;-96
2023/04/07 10:17:22;;;;;;;13.45;3.95;;;;;;;8.95;98.99;101698.72;4947055;28;20058;-94
2023/04/07 10:19:49;;;;;;;11.38;3.85;;;;;;;8.94;98.66;101698.66;4931501;28;20153;-96
2023/04/07 10:22:16;;;;;;;15.75;4.13;;;;;;;8.94;99.23;101699.53;4928850;28;20466;-93
2023/04/07 10:25:02;;;;;;;13.23;4.20;;;;;;;8.97;100.00;101712.66;4950669;28;20082;-96
2023/04/07 10:27:48;;;;;;;15.57;4.28;;;;;;;8.98;99.86;101705.75;4943613;28;20517;-96
2023/04/07 10:30:21;;;;;;;13.27;3.75;;;;;;;9.01;100.00;101711.09;4945364;28;20035;-95
2023/04/07 10:32:52;;;;;;;9.95;3.50;;;;;;;9.05;99.64;101719.09;4936165;28;20118;-95
2023/04/07 10:35:17;;;;;;;9.18;3.40;;;;;;;9.13;100.00;101719.44;4938122;28;20031;-94
2023/04/07 10:38:17;;;;;;;10.80;4.15;;;;;;;9.22;100.00;101714.66;4943693;28;20045;-95
2023/04/07 10:40:44;;;;;;;11.40;3.42;;;;;;;9.33;100.00;101714.22;4943226;28;21061;-95
2023/04/07 10:43:35;;;;;;;11.63;3.63;;;;;;;9.43;100.00;101716.38;4958083;28;20102;-94
2023/04/07 10:46:01;;;;;;;11.80;3.63;;;;;;;9.53;99.05;101713.34;4965422;28;20063;-94
2023/04/07 10:48:31;;;;;;;11.63;3.60;;;;;;;9.61;100.00;101713.66;4960362;28;20069;-96
2023/04/07 10:53:27;;;;;;;10.40;4.28;;;;;;;9.67;97.65;101719.09;4972804;28;20051;-66
2023/04/07 10:55:53;;;;;;;11.60;3.78;;;;;;;9.71;98.78;101722.72;4977477;28;20042;-66
2023/04/07 10:58:23;;;;;;;12.50;4.13;;;;;;;9.74;98.66;101713.31;4977079;28;20529;-66
2023/04/07 11:01:07;;;;;;;10.38;4.28;;;;;;;9.79;98.25;101718.72;4976407;28;20402;-66
2023/04/07 11:03:35;;;;;;;16.42;4.47;;;;;;;9.79;98.09;101721.34;4976591;28;20512;-66
2023/04/07 11:06:12;;;;;;;12.57;4.78;;;;;;;9.80;97.22;101732.63;4978164;28;20592;-66
2023/04/07 11:08:47;;;;;;;11.98;4.00;;;;;;;9.77;97.87;101722.97;4976492;28;20068;-66
2023/04/07 11:11:14;;;;;;;11.40;4.45;;;;;;;9.73;96.33;101731.47;4978663;28;20038;-66
2023/04/07 11:13:47;;;;;;;11.88;4.28;;;;;;;9.71;94.81;101738.34;4978160;28;20054;-66
2023/04/07 11:16:15;;;;;;;12.52;4.75;;;;;;;9.67;95.76;101732.09;4978210;28;20687;-66